sim
Sign-in with your pilot id or email,
or register
Callsign
Passwort

Schedule Details

Flight Number: OEC688
Departure: Munich Airport (EDDM) at Time
Arrival: Mikonos Airport (LGMK) at Time
Route: ROTAX3S ROTAX UL603 LATLO DCT OBEDI DCT BERTA/N0455F350 DCT ROLBA DCT MEDUX UM867 KOGAT DCT TALAS UM749 ELPIS UP20 ABLON UN132 KEA UL995 VARIX VARIX1P

Weather Information
Getting current METAR information for EDDM 281150Z 27004KT 240V300 9999 FEW010 BKN040 10/07 Q1012 NOSIG
Getting current METAR information for LGMK 281150Z 12010KT CAVOK 28/15 Q1016

Schedule Frequency

Route Map